sensor_id;sensor_type;location;lat;lon;timestamp;temperature;humidity
16491;DHT22;8356;51.214;3.270;2023-04-06T00:00:51;308.00;2304.00
16491;DHT22;8356;51.214;3.270;2023-04-06T00:03:17;307.90;2304.00
16491;DHT22;8356;51.214;3.270;2023-04-06T00:05:43;307.90;2304.00
16491;DHT22;8356;51.214;3.270;2023-04-06T00:08:08;307.90;2304.00
16491;DHT22;8356;51.214;3.270;2023-04-06T00:10:34;307.90;2304.00
16491;DHT22;8356;51.214;3.270;2023-04-06T00:13:00;307.90;2304.00
16491;DHT22;8356;51.214;3.270;2023-04-06T00:15:26;307.80;2304.00
16491;DHT22;8356;51.214;3.270;2023-04-06T00:17:52;307.70;2304.00
16491;DHT22;8356;51.214;3.270;2023-04-06T00:20:18;307.80;2304.00
16491;DHT22;8356;51.214;3.270;2023-04-06T00:22:44;307.90;2304.00
16491;DHT22;8356;51.214;3.270;2023-04-06T00:25:10;307.90;2304.00
16491;DHT22;8356;51.214;3.270;2023-04-06T00:27:39;307.90;2304.00
16491;DHT22;8356;51.214;3.270;2023-04-06T00:30:05;307.90;2304.00
16491;DHT22;8356;51.214;3.270;2023-04-06T00:32:31;307.90;2304.00
16491;DHT22;8356;51.214;3.270;2023-04-06T00:34:58;307.90;2304.00
16491;DHT22;8356;51.214;3.270;2023-04-06T00:37:23;307.90;2304.00
16491;DHT22;8356;51.214;3.270;2023-04-06T00:39:49;307.80;2304.00
16491;DHT22;8356;51.214;3.270;2023-04-06T00:42:17;307.60;2304.00
16491;DHT22;8356;51.214;3.270;2023-04-06T00:44:51;307.60;2304.00
16491;DHT22;8356;51.214;3.270;2023-04-06T00:47:17;307.60;2304.00
16491;DHT22;8356;51.214;3.270;2023-04-06T00:49:43;307.60;2304.00
16491;DHT22;8356;51.214;3.270;2023-04-06T00:52:09;307.60;2304.00
16491;DHT22;8356;51.214;3.270;2023-04-06T00:54:34;307.70;2304.00
16491;DHT22;8356;51.214;3.270;2023-04-06T00:57:00;307.70;2304.00
16491;DHT22;8356;51.214;3.270;2023-04-06T00:59:27;307.70;2304.00
16491;DHT22;8356;51.214;3.270;2023-04-06T01:01:54;307.90;2304.00
16491;DHT22;8356;51.214;3.270;2023-04-06T01:04:20;307.60;2304.00
16491;DHT22;8356;51.214;3.270;2023-04-06T01:06:51;307.70;2304.00
16491;DHT22;8356;51.214;3.270;2023-04-06T01:09:17;307.70;2304.00
16491;DHT22;8356;51.214;3.270;2023-04-06T01:11:43;307.70;2304.00
16491;DHT22;8356;51.214;3.270;2023-04-06T01:14:08;307.80;2304.00
16491;DHT22;8356;51.214;3.270;2023-04-06T01:16:35;307.80;2304.00
16491;DHT22;8356;51.214;3.270;2023-04-06T01:19:12;307.70;2304.00
16491;DHT22;8356;51.214;3.270;2023-04-06T01:21:39;307.70;2304.00
16491;DHT22;8356;51.214;3.270;2023-04-06T01:24:06;307.60;2304.00
16491;DHT22;8356;51.214;3.270;2023-04-06T01:26:33;307.60;2304.00
16491;DHT22;8356;51.214;3.270;2023-04-06T01:28:59;307.50;2304.00
16491;DHT22;8356;51.214;3.270;2023-04-06T01:31:25;307.60;2304.00
16491;DHT22;8356;51.214;3.270;2023-04-06T01:33:52;307.60;2304.00
16491;DHT22;8356;51.214;3.270;2023-04-06T01:36:18;307.60;2304.00
16491;DHT22;8356;51.214;3.270;2023-04-06T01:38:44;307.60;2304.00
16491;DHT22;8356;51.214;3.270;2023-04-06T01:41:10;307.60;2304.00
16491;DHT22;8356;51.214;3.270;2023-04-06T01:43:36;307.60;2304.00
16491;DHT22;8356;51.214;3.270;2023-04-06T01:46:02;307.60;2304.00
16491;DHT22;8356;51.214;3.270;2023-04-06T01:48:28;307.60;2304.00
16491;DHT22;8356;51.214;3.270;2023-04-06T01:50:54;307.60;2304.00
16491;DHT22;8356;51.214;3.270;2023-04-06T01:53:20;307.60;2304.00
16491;DHT22;8356;51.214;3.270;2023-04-06T01:55:45;307.50;2304.00
16491;DHT22;8356;51.214;3.270;2023-04-06T01:58:11;307.50;2304.00
16491;DHT22;8356;51.214;3.270;2023-04-06T02:00:37;307.40;2304.00
16491;DHT22;8356;51.214;3.270;2023-04-06T02:03:03;307.40;2304.00
16491;DHT22;8356;51.214;3.270;2023-04-06T02:05:30;307.40;2304.00
16491;DHT22;8356;51.214;3.270;2023-04-06T02:07:57;307.50;2304.00
16491;DHT22;8356;51.214;3.270;2023-04-06T02:10:22;307.40;2304.00
16491;DHT22;8356;51.214;3.270;2023-04-06T02:12:49;307.40;2304.00
16491;DHT22;8356;51.214;3.270;2023-04-06T02:15:15;307.30;2304.00
16491;DHT22;8356;51.214;3.270;2023-04-06T02:17:41;307.40;2304.00
16491;DHT22;8356;51.214;3.270;2023-04-06T02:20:07;307.40;2304.00
16491;DHT22;8356;51.214;3.270;2023-04-06T02:22:34;307.40;2304.00
16491;DHT22;8356;51.214;3.270;2023-04-06T02:25:00;307.40;2304.00
16491;DHT22;8356;51.214;3.270;2023-04-06T02:27:26;307.50;2304.00
16491;DHT22;8356;51.214;3.270;2023-04-06T02:29:52;307.50;2304.00
16491;DHT22;8356;51.214;3.270;2023-04-06T02:32:18;307.50;2304.00
16491;DHT22;8356;51.214;3.270;2023-04-06T02:34:43;307.40;2304.00
16491;DHT22;8356;51.214;3.270;2023-04-06T02:37:09;307.40;2304.00
16491;DHT22;8356;51.214;3.270;2023-04-06T02:39:35;307.40;2304.00
16491;DHT22;8356;51.214;3.270;2023-04-06T02:42:01;307.40;2304.00
16491;DHT22;8356;51.214;3.270;2023-04-06T02:44:26;307.30;2304.00
16491;DHT22;8356;51.214;3.270;2023-04-06T02:46:52;307.30;2304.00
16491;DHT22;8356;51.214;3.270;2023-04-06T02:49:18;307.30;2304.00
16491;DHT22;8356;51.214;3.270;2023-04-06T02:51:43;307.30;2304.00
16491;DHT22;8356;51.214;3.270;2023-04-06T02:54:09;307.30;2304.00
16491;DHT22;8356;51.214;3.270;2023-04-06T02:56:35;307.20;2304.00
16491;DHT22;8356;51.214;3.270;2023-04-06T02:59:00;307.30;2304.00
16491;DHT22;8356;51.214;3.270;2023-04-06T03:01:26;307.30;2304.00
16491;DHT22;8356;51.214;3.270;2023-04-06T03:03:52;307.30;2304.00
16491;DHT22;8356;51.214;3.270;2023-04-06T03:06:17;282.50;2278.40
16491;DHT22;8356;51.214;3.270;2023-04-06T03:08:43;282.50;2278.40
16491;DHT22;8356;51.214;3.270;2023-04-06T03:11:09;282.50;2278.40
16491;DHT22;8356;51.214;3.270;2023-04-06T03:13:36;307.20;2304.00
16491;DHT22;8356;51.214;3.270;2023-04-06T03:16:07;307.30;2304.00
16491;DHT22;8356;51.214;3.270;2023-04-06T03:18:32;307.30;2304.00
16491;DHT22;8356;51.214;3.270;2023-04-06T03:20:58;307.30;2304.00
16491;DHT22;8356;51.214;3.270;2023-04-06T03:23:25;307.20;2304.00
16491;DHT22;8356;51.214;3.270;2023-04-06T03:25:51;307.30;2304.00
16491;DHT22;8356;51.214;3.270;2023-04-06T03:28:16;307.20;2304.00
16491;DHT22;8356;51.214;3.270;2023-04-06T03:30:42;282.50;2278.40
16491;DHT22;8356;51.214;3.270;2023-04-06T03:33:08;282.50;2278.40
16491;DHT22;8356;51.214;3.270;2023-04-06T03:35:33;282.50;2278.40
16491;DHT22;8356;51.214;3.270;2023-04-06T03:37:59;282.40;2278.40
16491;DHT22;8356;51.214;3.270;2023-04-06T03:40:25;282.50;2278.40
16491;DHT22;8356;51.214;3.270;2023-04-06T03:42:51;282.40;2278.40
16491;DHT22;8356;51.214;3.270;2023-04-06T03:45:16;282.30;2278.40
16491;DHT22;8356;51.214;3.270;2023-04-06T03:47:42;282.40;2278.40
16491;DHT22;8356;51.214;3.270;2023-04-06T03:50:08;282.40;2278.40
16491;DHT22;8356;51.214;3.270;2023-04-06T03:52:35;282.40;2278.40
16491;DHT22;8356;51.214;3.270;2023-04-06T03:55:02;282.50;2278.40
16491;DHT22;8356;51.214;3.270;2023-04-06T03:57:27;282.50;2278.40
16491;DHT22;8356;51.214;3.270;2023-04-06T03:59:53;307.20;2304.00
16491;DHT22;8356;51.214;3.270;2023-04-06T04:02:19;307.20;2304.00
16491;DHT22;8356;51.214;3.270;2023-04-06T04:04:44;282.50;2278.40
16491;DHT22;8356;51.214;3.270;2023-04-06T04:07:10;282.40;2278.40
16491;DHT22;8356;51.214;3.270;2023-04-06T04:09:37;282.30;2278.40
16491;DHT22;8356;51.214;3.270;2023-04-06T04:12:02;282.40;2278.40
16491;DHT22;8356;51.214;3.270;2023-04-06T04:14:28;282.50;2278.40
16491;DHT22;8356;51.214;3.270;2023-04-06T04:16:54;282.50;2278.40
16491;DHT22;8356;51.214;3.270;2023-04-06T04:19:19;282.50;2278.40
16491;DHT22;8356;51.214;3.270;2023-04-06T04:21:46;282.50;2278.40
16491;DHT22;8356;51.214;3.270;2023-04-06T04:24:12;282.00;2278.40
16491;DHT22;8356;51.214;3.270;2023-04-06T04:26:39;282.40;2278.40
16491;DHT22;8356;51.214;3.270;2023-04-06T04:29:05;282.10;2278.40
16491;DHT22;8356;51.214;3.270;2023-04-06T04:31:31;282.20;2278.40
16491;DHT22;8356;51.214;3.270;2023-04-06T04:33:57;282.10;2278.40
16491;DHT22;8356;51.214;3.270;2023-04-06T04:36:23;307.40;2304.00
16491;DHT22;8356;51.214;3.270;2023-04-06T04:38:51;282.10;2278.40
16491;DHT22;8356;51.214;3.270;2023-04-06T04:41:17;282.00;2278.40
16491;DHT22;8356;51.214;3.270;2023-04-06T04:43:43;282.00;2278.40
16491;DHT22;8356;51.214;3.270;2023-04-06T04:46:09;282.10;2278.40
16491;DHT22;8356;51.214;3.270;2023-04-06T04:48:34;282.00;2278.40
16491;DHT22;8356;51.214;3.270;2023-04-06T04:51:00;282.00;2278.40
16491;DHT22;8356;51.214;3.270;2023-04-06T04:53:26;282.10;2278.40
16491;DHT22;8356;51.214;3.270;2023-04-06T04:55:52;282.00;2278.40
16491;DHT22;8356;51.214;3.270;2023-04-06T04:58:18;282.00;2278.40
16491;DHT22;8356;51.214;3.270;2023-04-06T05:00:45;282.10;2278.40
16491;DHT22;8356;51.214;3.270;2023-04-06T05:03:19;282.10;2278.40
16491;DHT22;8356;51.214;3.270;2023-04-06T05:05:45;282.20;2278.40
16491;DHT22;8356;51.214;3.270;2023-04-06T05:08:11;282.10;2278.40
16491;DHT22;8356;51.214;3.270;2023-04-06T05:10:37;282.00;2278.40
16491;DHT22;8356;51.214;3.270;2023-04-06T05:13:03;282.00;2278.40
16491;DHT22;8356;51.214;3.270;2023-04-06T05:15:29;282.10;2278.40
16491;DHT22;8356;51.214;3.270;2023-04-06T05:17:54;282.10;2278.40
16491;DHT22;8356;51.214;3.270;2023-04-06T05:20:20;282.10;2278.40
16491;DHT22;8356;51.214;3.270;2023-04-06T05:22:46;282.00;2278.40
16491;DHT22;8356;51.214;3.270;2023-04-06T05:25:13;282.00;2278.40
16491;DHT22;8356;51.214;3.270;2023-04-06T05:27:39;282.30;2278.40
16491;DHT22;8356;51.214;3.270;2023-04-06T05:30:06;281.80;2278.40
16491;DHT22;8356;51.214;3.270;2023-04-06T05:32:32;281.90;2278.40
16491;DHT22;8356;51.214;3.270;2023-04-06T05:34:58;282.00;2278.40
16491;DHT22;8356;51.214;3.270;2023-04-06T05:37:24;282.00;2278.40
16491;DHT22;8356;51.214;3.270;2023-04-06T05:39:49;282.00;2278.40
16491;DHT22;8356;51.214;3.270;2023-04-06T05:42:15;282.10;2278.40
16491;DHT22;8356;51.214;3.270;2023-04-06T05:44:42;282.10;2278.40
16491;DHT22;8356;51.214;3.270;2023-04-06T05:47:07;282.00;2278.40
16491;DHT22;8356;51.214;3.270;2023-04-06T05:49:33;282.10;2278.40
16491;DHT22;8356;51.214;3.270;2023-04-06T05:52:00;282.10;2278.40
16491;DHT22;8356;51.214;3.270;2023-04-06T05:54:26;282.10;2278.40
16491;DHT22;8356;51.214;3.270;2023-04-06T05:56:52;282.10;2278.40
16491;DHT22;8356;51.214;3.270;2023-04-06T05:59:17;282.00;2278.40
16491;DHT22;8356;51.214;3.270;2023-04-06T06:01:43;282.00;2278.40
16491;DHT22;8356;51.214;3.270;2023-04-06T06:04:09;282.10;2278.40
16491;DHT22;8356;51.214;3.270;2023-04-06T06:06:34;282.10;2278.40
16491;DHT22;8356;51.214;3.270;2023-04-06T06:09:01;282.00;2278.40
16491;DHT22;8356;51.214;3.270;2023-04-06T06:11:29;282.00;2278.40
16491;DHT22;8356;51.214;3.270;2023-04-06T06:13:55;281.90;2278.40
16491;DHT22;8356;51.214;3.270;2023-04-06T06:16:21;281.90;2278.40
16491;DHT22;8356;51.214;3.270;2023-04-06T06:18:46;281.70;2278.40
16491;DHT22;8356;51.214;3.270;2023-04-06T06:21:12;281.70;2278.40
16491;DHT22;8356;51.214;3.270;2023-04-06T06:23:38;281.80;2278.40
16491;DHT22;8356;51.214;3.270;2023-04-06T06:26:04;281.70;2278.40
16491;DHT22;8356;51.214;3.270;2023-04-06T06:28:30;281.80;2278.40
16491;DHT22;8356;51.214;3.270;2023-04-06T06:30:56;281.80;2278.40
16491;DHT22;8356;51.214;3.270;2023-04-06T06:33:22;281.90;2278.40
16491;DHT22;8356;51.214;3.270;2023-04-06T06:35:48;282.00;2278.40
16491;DHT22;8356;51.214;3.270;2023-04-06T06:38:14;282.00;2278.40
16491;DHT22;8356;51.214;3.270;2023-04-06T06:40:40;282.00;2278.40
16491;DHT22;8356;51.214;3.270;2023-04-06T06:43:06;282.10;2278.40
16491;DHT22;8356;51.214;3.270;2023-04-06T06:45:32;282.10;2278.40
16491;DHT22;8356;51.214;3.270;2023-04-06T06:47:58;281.90;2278.40
16491;DHT22;8356;51.214;3.270;2023-04-06T06:50:23;281.80;2278.40
16491;DHT22;8356;51.214;3.270;2023-04-06T06:52:50;282.00;2278.40
16491;DHT22;8356;51.214;3.270;2023-04-06T06:55:15;281.90;2278.40
16491;DHT22;8356;51.214;3.270;2023-04-06T06:57:41;281.90;2278.40
16491;DHT22;8356;51.214;3.270;2023-04-06T07:00:08;281.80;2278.40
16491;DHT22;8356;51.214;3.270;2023-04-06T07:02:35;281.90;2278.40
16491;DHT22;8356;51.214;3.270;2023-04-06T07:05:01;282.10;2278.40
16491;DHT22;8356;51.214;3.270;2023-04-06T07:07:27;282.10;2278.40
16491;DHT22;8356;51.214;3.270;2023-04-06T07:09:53;282.00;2278.40
16491;DHT22;8356;51.214;3.270;2023-04-06T07:12:18;282.00;2278.40
16491;DHT22;8356;51.214;3.270;2023-04-06T07:14:44;282.10;2278.40
16491;DHT22;8356;51.214;3.270;2023-04-06T07:17:10;282.20;2278.40
16491;DHT22;8356;51.214;3.270;2023-04-06T07:19:36;282.20;2278.40
16491;DHT22;8356;51.214;3.270;2023-04-06T07:22:02;282.20;2278.40
16491;DHT22;8356;51.214;3.270;2023-04-06T07:24:28;282.10;2278.40
16491;DHT22;8356;51.214;3.270;2023-04-06T07:26:54;282.20;2278.40
16491;DHT22;8356;51.214;3.270;2023-04-06T07:29:21;282.20;2278.40
16491;DHT22;8356;51.214;3.270;2023-04-06T07:31:48;282.10;2278.40
16491;DHT22;8356;51.214;3.270;2023-04-06T07:34:14;282.30;2278.40
16491;DHT22;8356;51.214;3.270;2023-04-06T07:36:40;282.30;2278.40
16491;DHT22;8356;51.214;3.270;2023-04-06T07:39:06;282.30;2278.40
16491;DHT22;8356;51.214;3.270;2023-04-06T07:41:32;282.30;2278.40
16491;DHT22;8356;51.214;3.270;2023-04-06T07:43:58;282.30;2278.40
16491;DHT22;8356;51.214;3.270;2023-04-06T07:46:24;282.20;2278.40
16491;DHT22;8356;51.214;3.270;2023-04-06T07:48:50;282.10;2278.40
16491;DHT22;8356;51.214;3.270;2023-04-06T07:51:16;282.10;2278.40
16491;DHT22;8356;51.214;3.270;2023-04-06T07:53:44;282.10;2278.40
16491;DHT22;8356;51.214;3.270;2023-04-06T07:56:10;282.00;2278.40
16491;DHT22;8356;51.214;3.270;2023-04-06T07:58:36;282.10;2278.40
16491;DHT22;8356;51.214;3.270;2023-04-06T08:01:02;282.10;2278.40
16491;DHT22;8356;51.214;3.270;2023-04-06T08:03:27;282.30;2278.40
16491;DHT22;8356;51.214;3.270;2023-04-06T08:05:53;282.30;2278.40
16491;DHT22;8356;51.214;3.270;2023-04-06T08:08:19;282.40;2278.40
16491;DHT22;8356;51.214;3.270;2023-04-06T08:10:45;282.40;2278.40
16491;DHT22;8356;51.214;3.270;2023-04-06T08:13:10;282.40;2278.40
16491;DHT22;8356;51.214;3.270;2023-04-06T08:15:36;282.40;2278.40
16491;DHT22;8356;51.214;3.270;2023-04-06T08:18:02;282.30;2278.40
16491;DHT22;8356;51.214;3.270;2023-04-06T08:20:28;282.30;2278.40
16491;DHT22;8356;51.214;3.270;2023-04-06T08:22:53;282.30;2278.40
16491;DHT22;8356;51.214;3.270;2023-04-06T08:25:19;282.30;2278.40
16491;DHT22;8356;51.214;3.270;2023-04-06T08:27:45;282.30;2278.40
16491;DHT22;8356;51.214;3.270;2023-04-06T08:30:11;282.20;2278.40
16491;DHT22;8356;51.214;3.270;2023-04-06T08:32:36;282.30;2278.40
16491;DHT22;8356;51.214;3.270;2023-04-06T08:35:02;282.40;2278.40
16491;DHT22;8356;51.214;3.270;2023-04-06T08:37:28;282.40;2278.40
16491;DHT22;8356;51.214;3.270;2023-04-06T08:39:53;282.50;2278.40
16491;DHT22;8356;51.214;3.270;2023-04-06T08:42:21;282.50;2278.40
16491;DHT22;8356;51.214;3.270;2023-04-06T08:44:50;307.20;2304.00
16491;DHT22;8356;51.214;3.270;2023-04-06T08:47:19;282.50;2278.40
16491;DHT22;8356;51.214;3.270;2023-04-06T08:49:45;307.20;2304.00
16491;DHT22;8356;51.214;3.270;2023-04-06T08:52:11;282.50;2278.40
16491;DHT22;8356;51.214;3.270;2023-04-06T08:54:39;282.40;2278.40
16491;DHT22;8356;51.214;3.270;2023-04-06T08:57:04;282.40;2278.40
16491;DHT22;8356;51.214;3.270;2023-04-06T08:59:31;282.30;2278.40
16491;DHT22;8356;51.214;3.270;2023-04-06T09:01:57;282.30;2278.40
16491;DHT22;8356;51.214;3.270;2023-04-06T09:04:26;282.30;2278.40
16491;DHT22;8356;51.214;3.270;2023-04-06T09:06:52;282.40;2278.40
16491;DHT22;8356;51.214;3.270;2023-04-06T09:09:18;282.40;2278.40
16491;DHT22;8356;51.214;3.270;2023-04-06T09:11:50;282.40;2278.40
16491;DHT22;8356;51.214;3.270;2023-04-06T09:14:17;282.30;2278.40
16491;DHT22;8356;51.214;3.270;2023-04-06T09:16:44;282.30;2278.40
16491;DHT22;8356;51.214;3.270;2023-04-06T09:19:11;282.30;2278.40
16491;DHT22;8356;51.214;3.270;2023-04-06T09:21:37;282.30;2278.40
16491;DHT22;8356;51.214;3.270;2023-04-06T09:24:07;282.30;2278.40
16491;DHT22;8356;51.214;3.270;2023-04-06T09:26:44;282.50;2278.40
16491;DHT22;8356;51.214;3.270;2023-04-06T09:29:10;282.50;2278.40
16491;DHT22;8356;51.214;3.270;2023-04-06T09:31:36;282.50;2278.40
16491;DHT22;8356;51.214;3.270;2023-04-06T09:34:01;282.50;2278.40
16491;DHT22;8356;51.214;3.270;2023-04-06T09:36:32;282.50;2278.40
16491;DHT22;8356;51.214;3.270;2023-04-06T09:39:02;282.50;2278.40
16491;DHT22;8356;51.214;3.270;2023-04-06T09:41:30;282.50;2278.40
16491;DHT22;8356;51.214;3.270;2023-04-06T09:44:22;282.50;2278.40
16491;DHT22;8356;51.214;3.270;2023-04-06T09:46:50;282.50;2278.40
16491;DHT22;8356;51.214;3.270;2023-04-06T09:49:16;282.50;2278.40
16491;DHT22;8356;51.214;3.270;2023-04-06T09:51:47;282.30;2278.40
16491;DHT22;8356;51.214;3.270;2023-04-06T09:54:18;282.40;2278.40
16491;DHT22;8356;51.214;3.270;2023-04-06T09:56:51;282.40;2278.40
16491;DHT22;8356;51.214;3.270;2023-04-06T09:59:50;282.40;2278.40
16491;DHT22;8356;51.214;3.270;2023-04-06T10:02:28;282.30;2278.40
16491;DHT22;8356;51.214;3.270;2023-04-06T10:05:05;282.30;2278.40
16491;DHT22;8356;51.214;3.270;2023-04-06T10:07:33;282.20;2278.40
16491;DHT22;8356;51.214;3.270;2023-04-06T10:10:00;256.90;2252.80
16491;DHT22;8356;51.214;3.270;2023-04-06T10:12:27;282.40;2278.40
16491;DHT22;8356;51.214;3.270;2023-04-06T10:14:53;307.20;2304.00
16491;DHT22;8356;51.214;3.270;2023-04-06T10:17:19;307.30;2304.00
16491;DHT22;8356;51.214;3.270;2023-04-06T10:20:04;307.40;2304.00
16491;DHT22;8356;51.214;3.270;2023-04-06T10:22:51;307.30;2304.00
16491;DHT22;8356;51.214;3.270;2023-04-06T10:25:32;307.30;2304.00
16491;DHT22;8356;51.214;3.270;2023-04-06T10:28:09;307.40;2304.00
16491;DHT22;8356;51.214;3.270;2023-04-06T10:30:42;307.30;2304.00
16491;DHT22;8356;51.214;3.270;2023-04-06T10:33:19;307.20;2304.00
16491;DHT22;8356;51.214;3.270;2023-04-06T10:35:45;307.20;2304.00
16491;DHT22;8356;51.214;3.270;2023-04-06T10:38:11;307.30;2304.00
16491;DHT22;8356;51.214;3.270;2023-04-06T10:40:40;307.30;2304.00
16491;DHT22;8356;51.214;3.270;2023-04-06T10:43:12;307.30;2304.00
16491;DHT22;8356;51.214;3.270;2023-04-06T10:45:39;307.30;2304.00
16491;DHT22;8356;51.214;3.270;2023-04-06T10:48:18;307.40;2304.00
16491;DHT22;8356;51.214;3.270;2023-04-06T10:50:46;307.40;2304.00
16491;DHT22;8356;51.214;3.270;2023-04-06T10:53:26;307.40;2304.00
16491;DHT22;8356;51.214;3.270;2023-04-06T10:55:54;307.40;2304.00
16491;DHT22;8356;51.214;3.270;2023-04-06T10:58:20;307.40;2304.00
16491;DHT22;8356;51.214;3.270;2023-04-06T11:00:49;307.40;2304.00
16491;DHT22;8356;51.214;3.270;2023-04-06T11:03:16;307.60;2304.00
16491;DHT22;8356;51.214;3.270;2023-04-06T11:05:49;307.60;2304.00
16491;DHT22;8356;51.214;3.270;2023-04-06T11:08:32;307.60;2304.00
16491;DHT22;8356;51.214;3.270;2023-04-06T11:11:09;307.50;2304.00
16491;DHT22;8356;51.214;3.270;2023-04-06T11:13:40;307.50;2304.00
16491;DHT22;8356;51.214;3.270;2023-04-06T11:16:06;307.50;2304.00
16491;DHT22;8356;51.214;3.270;2023-04-06T11:18:31;307.60;2304.00
16491;DHT22;8356;51.214;3.270;2023-04-06T11:20:57;307.60;2304.00
16491;DHT22;8356;51.214;3.270;2023-04-06T11:23:24;307.60;2304.00
16491;DHT22;8356;51.214;3.270;2023-04-06T11:25:52;307.50;2304.00
16491;DHT22;8356;51.214;3.270;2023-04-06T11:28:18;307.60;2304.00
16491;DHT22;8356;51.214;3.270;2023-04-06T11:30:43;307.50;2304.00
16491;DHT22;8356;51.214;3.270;2023-04-06T11:33:10;307.60;2304.00
16491;DHT22;8356;51.214;3.270;2023-04-06T11:35:37;307.60;2304.00
16491;DHT22;8356;51.214;3.270;2023-04-06T11:38:03;307.60;2304.00
16491;DHT22;8356;51.214;3.270;2023-04-06T11:40:29;282.50;2278.40
16491;DHT22;8356;51.214;3.270;2023-04-06T11:42:55;307.70;2304.00
16491;DHT22;8356;51.214;3.270;2023-04-06T11:45:22;307.70;2304.00
16491;DHT22;8356;51.214;3.270;2023-04-06T11:47:56;307.70;2304.00
16491;DHT22;8356;51.214;3.270;2023-04-06T11:50:22;307.80;2304.00
16491;DHT22;8356;51.214;3.270;2023-04-06T11:52:58;307.80;2304.00
16491;DHT22;8356;51.214;3.270;2023-04-06T11:55:25;307.70;2304.00
16491;DHT22;8356;51.214;3.270;2023-04-06T11:57:51;307.80;2304.00
16491;DHT22;8356;51.214;3.270;2023-04-06T12:00:17;307.90;2304.00
16491;DHT22;8356;51.214;3.270;2023-04-06T12:02:47;308.00;2304.00
16491;DHT22;8356;51.214;3.270;2023-04-06T12:05:13;308.10;2304.00
16491;DHT22;8356;51.214;3.270;2023-04-06T12:07:38;332.80;2329.60
16491;DHT22;8356;51.214;3.270;2023-04-06T12:10:05;332.80;2329.60
16491;DHT22;8356;51.214;3.270;2023-04-06T12:12:30;332.80;2329.60
16491;DHT22;8356;51.214;3.270;2023-04-06T12:14:57;308.10;2304.00
16491;DHT22;8356;51.214;3.270;2023-04-06T12:17:23;332.80;2329.60
16491;DHT22;8356;51.214;3.270;2023-04-06T12:19:49;332.90;2329.60
16491;DHT22;8356;51.214;3.270;2023-04-06T12:22:15;332.90;2329.60
16491;DHT22;8356;51.214;3.270;2023-04-06T12:24:41;333.00;2329.60
16491;DHT22;8356;51.214;3.270;2023-04-06T12:27:06;333.00;2329.60
16491;DHT22;8356;51.214;3.270;2023-04-06T12:29:32;333.00;2329.60
16491;DHT22;8356;51.214;3.270;2023-04-06T12:31:58;333.00;2329.60
16491;DHT22;8356;51.214;3.270;2023-04-06T12:34:26;333.00;2329.60
16491;DHT22;8356;51.214;3.270;2023-04-06T12:36:52;333.10;2329.60
16491;DHT22;8356;51.214;3.270;2023-04-06T12:39:18;333.20;2329.60
16491;DHT22;8356;51.214;3.270;2023-04-06T12:41:45;333.10;2329.60
16491;DHT22;8356;51.214;3.270;2023-04-06T12:44:11;333.10;2329.60
16491;DHT22;8356;51.214;3.270;2023-04-06T12:46:36;333.20;2329.60
16491;DHT22;8356;51.214;3.270;2023-04-06T12:49:02;333.20;2329.60
16491;DHT22;8356;51.214;3.270;2023-04-06T12:51:28;333.20;2329.60
16491;DHT22;8356;51.214;3.270;2023-04-06T12:53:54;333.30;2329.60
16491;DHT22;8356;51.214;3.270;2023-04-06T12:56:20;333.20;2329.60
16491;DHT22;8356;51.214;3.270;2023-04-06T12:58:51;333.30;2329.60
16491;DHT22;8356;51.214;3.270;2023-04-06T13:01:17;333.20;2329.60
16491;DHT22;8356;51.214;3.270;2023-04-06T13:03:43;333.30;2329.60
16491;DHT22;8356;51.214;3.270;2023-04-06T13:06:09;333.20;2329.60
16491;DHT22;8356;51.214;3.270;2023-04-06T13:08:36;333.50;2329.60
16491;DHT22;8356;51.214;3.270;2023-04-06T13:11:03;333.50;2329.60
16491;DHT22;8356;51.214;3.270;2023-04-06T13:13:30;333.60;2329.60
16491;DHT22;8356;51.214;3.270;2023-04-06T13:16:01;333.70;2329.60
16491;DHT22;8356;51.214;3.270;2023-04-06T13:18:28;333.70;2329.60
16491;DHT22;8356;51.214;3.270;2023-04-06T13:20:54;333.70;2329.60
16491;DHT22;8356;51.214;3.270;2023-04-06T13:23:21;333.70;2329.60
16491;DHT22;8356;51.214;3.270;2023-04-06T13:25:47;333.70;2329.60
16491;DHT22;8356;51.214;3.270;2023-04-06T13:28:13;333.70;2329.60
16491;DHT22;8356;51.214;3.270;2023-04-06T13:30:39;333.60;2329.60
16491;DHT22;8356;51.214;3.270;2023-04-06T13:33:05;333.50;2329.60
16491;DHT22;8356;51.214;3.270;2023-04-06T13:35:32;333.60;2329.60
16491;DHT22;8356;51.214;3.270;2023-04-06T13:37:58;333.70;2329.60
16491;DHT22;8356;51.214;3.270;2023-04-06T13:40:23;333.60;2329.60
16491;DHT22;8356;51.214;3.270;2023-04-06T13:42:50;333.60;2329.60
16491;DHT22;8356;51.214;3.270;2023-04-06T13:45:16;333.60;2329.60
16491;DHT22;8356;51.214;3.270;2023-04-06T13:47:41;333.50;2329.60
16491;DHT22;8356;51.214;3.270;2023-04-06T13:50:07;333.50;2329.60
16491;DHT22;8356;51.214;3.270;2023-04-06T13:52:33;333.60;2329.60
16491;DHT22;8356;51.214;3.270;2023-04-06T13:55:01;333.50;2329.60
16491;DHT22;8356;51.214;3.270;2023-04-06T13:57:27;333.50;2329.60
16491;DHT22;8356;51.214;3.270;2023-04-06T13:59:55;333.50;2329.60
16491;DHT22;8356;51.214;3.270;2023-04-06T14:02:20;333.50;2329.60
16491;DHT22;8356;51.214;3.270;2023-04-06T14:04:52;333.50;2329.60
16491;DHT22;8356;51.214;3.270;2023-04-06T14:07:17;333.50;2329.60
16491;DHT22;8356;51.214;3.270;2023-04-06T14:09:43;333.40;2329.60
16491;DHT22;8356;51.214;3.270;2023-04-06T14:12:08;333.40;2329.60
16491;DHT22;8356;51.214;3.270;2023-04-06T14:14:34;333.40;2329.60
16491;DHT22;8356;51.214;3.270;2023-04-06T14:17:00;333.40;2329.60
16491;DHT22;8356;51.214;3.270;2023-04-06T14:19:25;333.30;2329.60
16491;DHT22;8356;51.214;3.270;2023-04-06T14:21:51;333.00;2329.60
16491;DHT22;8356;51.214;3.270;2023-04-06T14:24:17;333.30;2329.60
16491;DHT22;8356;51.214;3.270;2023-04-06T14:26:43;333.30;2329.60
16491;DHT22;8356;51.214;3.270;2023-04-06T14:29:09;333.30;2329.60
16491;DHT22;8356;51.214;3.270;2023-04-06T14:31:35;333.40;2329.60
16491;DHT22;8356;51.214;3.270;2023-04-06T14:34:02;333.40;2329.60
16491;DHT22;8356;51.214;3.270;2023-04-06T14:36:28;333.40;2329.60
16491;DHT22;8356;51.214;3.270;2023-04-06T14:38:57;333.40;2329.60
16491;DHT22;8356;51.214;3.270;2023-04-06T14:41:23;333.50;2329.60
16491;DHT22;8356;51.214;3.270;2023-04-06T14:43:50;333.40;2329.60
16491;DHT22;8356;51.214;3.270;2023-04-06T14:46:18;333.40;2329.60
16491;DHT22;8356;51.214;3.270;2023-04-06T14:48:44;333.40;2329.60
16491;DHT22;8356;51.214;3.270;2023-04-06T14:51:13;333.30;2329.60
16491;DHT22;8356;51.214;3.270;2023-04-06T14:53:38;333.40;2329.60
16491;DHT22;8356;51.214;3.270;2023-04-06T14:56:05;333.30;2329.60
16491;DHT22;8356;51.214;3.270;2023-04-06T14:58:30;333.30;2329.60
16491;DHT22;8356;51.214;3.270;2023-04-06T15:01:00;333.40;2329.60